Pagina principale
METAR-TAF:

METAR-TAF

Aeroporti :

Aeroporto di Genova-Sestri

Genova, Italia

latitudine: 44-25N, longitudine: 008-51E, altezza: 2 m

Osservazione

Il bollettino è stato emesso 8 ore e 30 minuti fa, alle 20:50 UTC
Vento 1 kt da direzioni variabili
Temperature 13°C
Umidità 82%
Pressione 1012 hPa
Visibilità 10 km o più
Poco nuvoloso ad un'altezza di 2000 ft

METAR: LIMJ 292050Z VRB01KT 9999 FEW020 13/10 Q1012

Ora: 07:20 (05:20 UTC)

Previsione

Il bollettino è stato emesso 6 ore e 20 minuti fa, alle 23:00 UTC
Previsione valida dal 30 alle 00 UTC al 30 alle 24 UTC
Vento 6 kt da direzioni variabili
Visibilità 10 km o più
Nubi sparse ad un'altezza di 3000 ft
Temporaneamente
dal 30 alle 10 UTC al 30 alle 18 UTC
pioggia

TAF: LIMJ 292300Z 3000/3024 VRB06KT 9999 SCT030 TEMPO 3010/3018 RA

Osservazioni e previsioni meteorologiche di più di 4000 aeroporti (messaggi METAR e TAF).

Le stazioni disponibili sono rappresentate dai dischi gialli e rossi sulla carta.

Puntare il mouse per vedere il nome della stazione.

Clicca sopra per visualizzare le osservazioni e previsioni meteorologiche.

Per cambiare la mappa : fare clic sui pulsanti verdi con una croce nera per ingrandire, il pulsante verde con un trattino per diminuire, o sulla freccia verde per le mappe adiacenti.


METAR-TAF: